Elk Creek, VA

4:05 AM EST on February 12, 2016 (GMT -0500)
APRSWXNET | | Change Station
CLOSE
Current Station
Personal Weather Station
Location: Elk Creek, VA
Elevation: 2805 ft
Nearby Weather Stations

Elev 2805 ft 36.74 °N, 81.19 °W | Updated 16 minutes ago

Overcast
Overcast
20 °F
Feels Like 20 °F
N
0
Wind Variable Wind from SE
Gusts 2.0 mph

Today
High -- | Low -- °F
--% Chance of Precip.
Yesterday
High -- | Low -- °F
Precip. -- in
Pressure 30.13 in
Visibility 10.0 miles
Clouds Scattered Clouds 8000 ft
Windchill 20 °F
Dew Point 13 °F
Humidity 75%
Rainfall in
Snow Depth Not available.
7:16 AM 6:01 PM
Waxing Crescent, 19% visible
METAR KMKJ 120855Z AUTO 00000KT 10SM SCT080 M07/M12 A3013 RMK AO2 T10701116
Pressure 30.13 in
Visibility 10.0 miles
Clouds Scattered Clouds 8000 ft
Windchill 20 °F
Dew Point 13 °F
Humidity 75%
Rainfall in
Snow Depth Not available.
7:16 AM 6:01 PM
Waxing Crescent, 19% visible
METAR KMKJ 120855Z AUTO 00000KT 10SM SCT080 M07/M12 A3013 RMK AO2 T10701116

10-Day Weather Forecast

Almanac

Astronomy

Feb. 12, 2016 Rise Set
Actual Time
Civil Twilight
Nautical Twilight
Astronomical Twilight
Moon
Length of Visible Light
Length of Day
Tomorrow will be .
, % of the Moon is Illuminated

Today's Extremes

State Highs State Lows

Community

WunderPhotos

Upload Photos

1,892,286 photos uploaded!

WunderBlog® & News

Nearby

Air Quality

  Air Quality AQ Index Pollutant
Not available.

Snow Depth

Station Depth Elevation

Earthquake Activity

City Distance Mag. Time & Date
Minimum magnitude displayed is 2.5.

Coastal Water Temperatures

Place Temperature

Stations

Nearby Weather Stations

Station Location Temp. Windchill Dew Point Humidity Wind Precip. Elev Updated Type
                   

Watches & Warnings

There are currently no watches in effect.